Time;durP1;ratioP1;P1;durP2;ratioP2;P2;SDS_P1;SDS_P2;PMS_P1;PMS_P2;Temp;Humidity;BMP_temperature;BMP_pressure;BME280_temperature;BME280_humidity;BME280_pressure;Samples;Min_cycle;Max_cycle;Signal;HPM_P1;HPM_P2
2021/08/27 00:01:15;;;;;;;35.47;22.00;;;;;;;16.89;80.56;99879.25;4877772;29;20072;-87
2021/08/27 00:03:41;;;;;;;51.40;21.77;;;;;;;16.97;80.83;99889.38;4829863;29;20041;-91
2021/08/27 00:06:07;;;;;;;38.43;22.33;;;;;;;16.78;80.72;99864.25;4860744;29;20102;-88
2021/08/27 00:08:33;;;;;;;37.95;21.92;;;;;;;16.88;80.68;99880.38;4860743;29;20415;-88
2021/08/27 00:10:59;;;;;;;32.67;21.70;;;;;;;16.80;80.75;99851.72;4866811;29;20041;-89
2021/08/27 00:13:25;;;;;;;41.63;21.48;;;;;;;16.97;80.32;99872.00;4851890;29;20050;-88
2021/08/27 00:15:52;;;;;;;38.55;22.27;;;;;;;17.08;80.46;99884.22;4860280;29;20093;-88
2021/08/27 00:18:18;;;;;;;45.00;22.00;;;;;;;17.10;80.17;99874.44;4860166;29;20077;-88
2021/08/27 00:20:45;;;;;;;;;;;;;;;17.24;80.38;99895.41;4879053;29;20443;-88
2021/08/27 00:23:11;;;;;;;40.20;21.90;;;;;;;17.16;80.54;99893.56;4877463;29;19935;-89
2021/08/27 00:25:38;;;;;;;42.78;21.00;;;;;;;17.24;80.09;99898.19;4877735;29;20041;-88
2021/08/27 00:28:05;;;;;;;32.63;21.10;;;;;;;17.00;79.82;99861.06;4878104;29;20044;-88
2021/08/27 00:30:34;;;;;;;38.53;22.95;;;;;;;17.12;80.28;99893.44;4878552;29;20048;-88
2021/08/27 00:33:00;;;;;;;35.03;21.92;;;;;;;17.15;80.29;99898.28;4878164;29;20135;-88
2021/08/27 00:35:26;;;;;;;36.63;23.05;;;;;;;17.03;80.43;99885.25;4876893;29;20435;-90
2021/08/27 00:37:52;;;;;;;35.75;22.27;;;;;;;16.94;80.57;99879.00;4876850;29;20052;-89
2021/08/27 00:40:19;;;;;;;40.75;22.27;;;;;;;16.99;80.65;99889.84;4878337;29;20125;-88
2021/08/27 00:42:45;;;;;;;34.35;22.70;;;;;;;16.78;80.74;99851.25;4876259;29;20116;-89
2021/08/27 00:45:13;;;;;;;41.38;23.35;;;;;;;16.98;80.81;99892.94;4864734;29;20129;-88
2021/08/27 00:47:39;;;;;;;35.80;23.50;;;;;;;16.98;81.04;99896.50;4878934;29;20101;-89
2021/08/27 00:50:06;;;;;;;39.70;24.55;;;;;;;17.01;81.16;99897.78;4862481;29;20533;-90
2021/08/27 00:52:35;;;;;;;42.42;23.52;;;;;;;16.83;81.16;99877.84;4878498;29;20045;-89
2021/08/27 00:55:03;;;;;;;38.78;23.67;;;;;;;16.92;81.55;99897.91;4865538;29;20049;-90
2021/08/27 00:57:29;;;;;;;37.08;25.63;;;;;;;16.79;81.63;99888.78;4865436;29;20121;-91
2021/08/27 00:59:56;;;;;;;;;;;;;;;16.83;81.96;99897.19;4856001;29;20082;-90
2021/08/27 01:02:22;;;;;;;49.47;26.90;;;;;;;16.64;81.93;99878.31;4848599;29;19963;-88
2021/08/27 01:04:50;;;;;;;46.67;24.70;;;;;;;16.82;81.78;99907.41;4878834;29;20044;-89
2021/08/27 01:07:27;;;;;;;37.30;23.48;;;;;;;16.76;82.03;99886.69;4881531;29;20049;-89
2021/08/27 01:10:23;;;;;;;45.38;24.00;;;;;;;16.60;81.75;99850.59;4881406;29;20161;-89
2021/08/27 01:13:02;;;;;;;;;;;;;;;16.85;82.03;99897.63;4885108;29;20052;-89
2021/08/27 01:15:38;;;;;;;41.15;24.75;;;;;;;16.72;82.60;99893.19;4875704;29;20393;-90
2021/08/27 01:18:15;;;;;;;43.45;23.95;;;;;;;16.67;82.50;99895.00;4850760;29;20452;-89
2021/08/27 01:21:25;;;;;;;44.20;25.15;;;;;;;16.79;82.58;99907.28;4875047;29;20052;-89
2021/08/27 01:23:56;;;;;;;43.30;26.70;;;;;;;16.57;82.67;99883.59;4884362;29;20105;-89
2021/08/27 01:26:32;;;;;;;40.17;26.30;;;;;;;16.78;82.74;99911.19;4875885;29;20085;-89
2021/08/27 01:29:02;;;;;;;42.35;24.10;;;;;;;16.81;82.33;99894.75;4881664;29;20060;-89
2021/08/27 01:31:32;;;;;;;42.45;23.45;;;;;;;16.77;82.31;99899.34;4867843;29;20041;-89
2021/08/27 01:34:31;;;;;;;42.67;24.65;;;;;;;16.79;82.28;99902.56;4866693;29;20049;-90
2021/08/27 01:36:58;;;;;;;41.28;25.25;;;;;;;16.76;82.71;99896.94;4874426;29;20049;-91
2021/08/27 01:39:29;;;;;;;36.63;24.33;;;;;;;16.75;82.49;99890.56;4869465;29;20392;-89
2021/08/27 01:41:57;;;;;;;42.08;24.23;;;;;;;16.62;82.70;99886.97;4852161;29;20431;-89
2021/08/27 01:44:25;;;;;;;43.10;23.85;;;;;;;16.63;82.84;99894.09;4882600;29;20077;-89
2021/08/27 01:46:54;;;;;;;42.53;24.20;;;;;;;16.52;83.03;99873.56;4861795;29;20132;-90
2021/08/27 01:49:22;;;;;;;38.70;25.00;;;;;;;16.65;82.96;99880.75;4850847;29;20069;-89
2021/08/27 01:51:49;;;;;;;42.08;24.60;;;;;;;16.55;82.79;99861.84;4885947;29;20072;-90
2021/08/27 01:54:16;;;;;;;49.90;23.10;;;;;;;16.86;82.42;99913.06;4867132;29;20128;-89
2021/08/27 01:56:44;;;;;;;39.30;23.55;;;;;;;16.83;81.97;99905.47;4869473;29;20052;-89
2021/08/27 01:59:10;;;;;;;34.13;22.27;;;;;;;16.73;81.60;99892.84;4882548;29;20180;-90
2021/08/27 02:01:38;;;;;;;36.60;22.60;;;;;;;16.51;81.70;99863.66;4884161;29;20045;-89
2021/08/27 02:04:09;;;;;;;36.95;22.40;;;;;;;16.82;81.70;99909.34;4883562;29;20199;-89
2021/08/27 02:06:36;;;;;;;40.92;21.77;;;;;;;16.85;81.53;99911.44;4879354;29;20530;-89
2021/08/27 02:09:04;;;;;;;35.67;23.48;;;;;;;16.87;81.81;99915.47;4866381;29;20103;-89
2021/08/27 02:11:33;;;;;;;38.13;23.20;;;;;;;16.68;82.04;99890.28;4862648;29;20041;-89
2021/08/27 02:14:00;;;;;;;;;;;;;;;16.83;81.84;99917.31;4864784;29;20041;-89
2021/08/27 02:16:26;;;;;;;36.78;22.48;;;;;;;16.67;81.75;99900.53;4868239;29;19927;-89
2021/08/27 02:18:53;;;;;;;36.08;23.00;;;;;;;16.53;81.68;99883.47;4873903;29;20064;-89
2021/08/27 02:21:22;;;;;;;37.13;23.27;;;;;;;16.64;82.07;99903.16;4876256;29;20348;-89
2021/08/27 02:23:51;;;;;;;35.60;22.45;;;;;;;16.64;81.92;99909.50;4868811;29;20050;-91
2021/08/27 02:26:18;;;;;;;43.97;22.90;;;;;;;16.71;82.18;99916.41;4862680;29;20045;-91
2021/08/27 02:28:45;;;;;;;38.00;23.42;;;;;;;16.51;82.17;99895.97;4872391;29;20041;-90
2021/08/27 02:31:13;;;;;;;38.58;22.73;;;;;;;16.30;82.59;99860.13;4879900;29;20093;-91
2021/08/27 02:33:43;;;;;;;41.08;21.98;;;;;;;16.68;82.46;99928.94;4879857;29;20076;-91
2021/08/27 02:36:18;;;;;;;37.85;24.10;;;;;;;16.50;82.49;99902.66;4880248;29;20044;-90
2021/08/27 02:38:49;;;;;;;41.88;23.27;;;;;;;16.64;82.36;99930.78;4872159;29;20038;-90
2021/08/27 02:41:16;;;;;;;37.35;24.65;;;;;;;16.47;82.70;99897.81;4859789;29;20072;-90
2021/08/27 02:43:42;;;;;;;35.33;23.92;;;;;;;16.55;82.52;99928.06;4879411;29;20072;-90
2021/08/27 02:46:08;;;;;;;37.53;24.60;;;;;;;16.41;82.31;99905.47;4848230;29;20037;-90
2021/08/27 02:48:34;;;;;;;39.03;23.58;;;;;;;16.60;82.52;99936.16;4880371;29;20037;-90
2021/08/27 02:51:04;;;;;;;;;;;;;;;16.61;82.75;99943.28;4877452;29;20043;-92
2021/08/27 02:53:34;;;;;;;40.88;23.75;;;;;;;16.38;82.65;99908.91;4878801;29;20448;-89
2021/08/27 02:56:05;;;;;;;46.85;25.48;;;;;;;16.38;82.75;99908.91;4878087;29;20049;-89
2021/08/27 02:58:34;;;;;;;41.70;25.85;;;;;;;16.52;82.74;99928.75;4871865;29;20068;-90
2021/08/27 03:01:06;;;;;;;40.40;25.73;;;;;;;16.62;82.52;99930.28;4860190;29;20046;-90
2021/08/27 03:03:35;;;;;;;43.60;24.40;;;;;;;16.57;82.25;99928.56;4878776;29;20059;-89
2021/08/27 03:06:15;;;;;;;40.03;24.98;;;;;;;16.64;82.22;99934.34;4862848;29;20068;-93
2021/08/27 03:08:46;;;;;;;35.17;23.08;;;;;;;16.71;81.66;99953.13;4879428;29;20064;-94
2021/08/27 03:11:20;;;;;;;40.03;23.52;;;;;;;16.71;81.89;99955.88;4866154;29;20491;-89
2021/08/27 03:14:02;;;;;;;40.13;24.67;;;;;;;16.70;81.96;99956.22;4878567;29;20502;-90
2021/08/27 03:16:29;;;;;;;44.40;24.10;;;;;;;16.61;81.95;99937.78;4878392;29;20499;-89
2021/08/27 03:19:10;;;;;;;45.75;24.20;;;;;;;16.75;81.94;99951.31;4879330;29;20534;-90
2021/08/27 03:22:27;;;;;;;39.22;23.08;;;;;;;16.70;81.48;99936.91;4855243;29;20581;-90
2021/08/27 03:25:01;;;;;;;36.95;23.58;;;;;;;16.71;81.25;99938.50;4895096;29;20048;-93
2021/08/27 03:27:34;;;;;;;41.47;24.73;;;;;;;16.84;80.90;99965.06;4896679;29;20072;-87
2021/08/27 03:30:27;;;;;;;41.75;25.50;;;;;;;16.70;81.12;99950.72;4882255;29;20128;-95
2021/08/27 03:33:06;;;;;;;42.47;25.45;;;;;;;16.83;81.08;99961.50;4872593;29;20053;-90
2021/08/27 03:35:33;;;;;;;47.55;26.48;;;;;;;16.93;81.05;99970.50;4877389;29;20045;-91
2021/08/27 03:38:00;;;;;;;40.63;27.47;;;;;;;16.92;80.68;99961.41;4862252;29;20049;-85
2021/08/27 03:40:28;;;;;;;43.95;27.33;;;;;;;16.81;80.77;99940.88;4873581;29;20935;-85
2021/08/27 03:42:56;;;;;;;;;;;;;;;17.08;80.39;99978.13;4868300;29;20095;-89
2021/08/27 03:45:24;;;;;;;47.10;27.77;;;;;;;17.05;80.49;99976.06;4853432;29;20018;-89
2021/08/27 03:47:51;;;;;;;43.65;24.75;;;;;;;17.12;80.08;99987.38;4871532;29;20037;-88
2021/08/27 03:50:19;;;;;;;42.30;24.98;;;;;;;17.10;79.67;99984.94;4876927;29;20499;-88
2021/08/27 03:52:46;;;;;;;;;;;;;;;17.18;79.72;99994.28;4861453;29;20463;-87
2021/08/27 03:55:15;;;;;;;45.42;24.42;;;;;;;17.20;79.45;99989.25;4872283;29;20026;-88
2021/08/27 03:57:44;;;;;;;38.53;25.38;;;;;;;17.22;79.60;99998.00;4875474;29;20057;-88
2021/08/27 04:00:11;;;;;;;45.72;25.38;;;;;;;17.18;79.52;99999.00;4877834;29;20045;-85
2021/08/27 04:02:41;;;;;;;44.85;26.33;;;;;;;17.05;79.74;99976.88;4875007;29;20051;-88
2021/08/27 04:05:13;;;;;;;43.92;25.83;;;;;;;17.22;80.02;99999.94;4877805;29;20505;-87
2021/08/27 04:07:40;;;;;;;40.53;25.25;;;;;;;17.19;79.57;99992.34;4877627;29;20053;-86
2021/08/27 04:10:09;;;;;;;44.92;26.77;;;;;;;17.14;79.72;100002.44;4877894;29;20049;-88
2021/08/27 04:12:39;;;;;;;54.15;27.20;;;;;;;17.13;79.87;99992.56;4876862;29;20041;-85
2021/08/27 04:15:10;;;;;;;48.97;28.02;;;;;;;17.09;79.22;99977.00;4876733;29;20065;-85
2021/08/27 04:17:39;;;;;;;50.03;28.25;;;;;;;17.09;78.87;99977.81;4876827;29;20041;-88
2021/08/27 04:20:07;;;;;;;49.63;29.35;;;;;;;17.23;79.22;100004.34;4876609;29;20049;-89
2021/08/27 04:22:34;;;;;;;49.08;29.27;;;;;;;17.25;79.33;99999.25;4877975;29;20093;-88
2021/08/27 04:25:00;;;;;;;51.23;29.33;;;;;;;17.23;78.99;99993.28;4876390;29;20037;-88
2021/08/27 04:27:27;;;;;;;47.97;28.70;;;;;;;17.26;79.05;100003.66;4877776;29;20460;-87
2021/08/27 04:29:53;;;;;;;47.07;29.60;;;;;;;17.25;79.18;100005.63;4875922;29;20047;-87
2021/08/27 04:32:23;;;;;;;53.00;31.15;;;;;;;17.15;79.01;99994.97;4866522;29;20041;-85
2021/08/27 04:34:49;;;;;;;50.03;30.17;;;;;;;17.21;79.04;100001.09;4874995;29;20549;-85
2021/08/27 04:37:15;;;;;;;55.13;32.17;;;;;;;17.17;79.00;99991.88;4875024;29;20053;-85
2021/08/27 04:39:41;;;;;;;62.50;30.90;;;;;;;17.25;78.41;100011.13;4874970;29;20045;-87
2021/08/27 04:42:07;;;;;;;52.78;33.40;;;;;;;17.18;79.01;99987.97;4876424;29;20104;-86
2021/08/27 04:44:33;;;;;;;56.80;32.53;;;;;;;17.12;78.86;99979.09;4875735;29;20036;-86
2021/08/27 04:47:00;;;;;;;63.80;34.50;;;;;;;17.34;78.62;100014.59;4875700;29;20199;-86
2021/08/27 04:49:26;;;;;;;55.63;35.58;;;;;;;17.27;78.25;99994.22;4875918;29;20550;-86
2021/08/27 04:51:52;;;;;;;56.85;34.58;;;;;;;17.20;77.69;99971.84;4875455;29;20079;-86
2021/08/27 04:54:17;;;;;;;59.07;36.07;;;;;;;17.55;78.12;100011.00;4875735;29;20056;-86
2021/08/27 04:56:44;;;;;;;56.63;34.80;;;;;;;17.48;77.63;100006.03;4874821;29;20088;-85
2021/08/27 04:59:10;;;;;;;61.17;35.70;;;;;;;17.52;77.81;100004.19;4875184;29;20073;-84
2021/08/27 05:01:37;;;;;;;60.10;35.67;;;;;;;17.61;77.64;100013.19;4874312;29;20045;-85
2021/08/27 05:04:03;;;;;;;61.25;36.53;;;;;;;17.59;77.36;99998.88;4874421;29;20037;-85
2021/08/27 05:06:29;;;;;;;54.80;35.00;;;;;;;17.68;77.13;100003.50;4873221;29;20072;-86
2021/08/27 05:08:55;;;;;;;55.93;34.10;;;;;;;17.61;76.16;99976.41;4874554;29;20068;-86
2021/08/27 05:11:22;;;;;;;63.03;35.78;;;;;;;17.68;76.48;99987.72;4873624;29;20049;-86
2021/08/27 05:13:48;;;;;;;66.20;35.77;;;;;;;17.89;76.60;100003.44;4875201;29;20041;-85
2021/08/27 05:16:14;;;;;;;68.27;35.13;;;;;;;17.97;75.75;100000.53;4870960;29;20087;-84
2021/08/27 05:18:40;;;;;;;60.17;35.10;;;;;;;17.92;75.07;100009.09;4886961;29;20068;-86
2021/08/27 05:21:07;;;;;;;59.83;35.05;;;;;;;17.82;74.94;99993.75;4876938;29;20176;-85
2021/08/27 05:23:32;;;;;;;69.63;36.50;;;;;;;17.80;75.27;100001.59;4877752;29;20044;-87
2021/08/27 05:25:58;;;;;;;64.93;37.30;;;;;;;17.91;74.99;100015.75;4855779;29;20037;-85
2021/08/27 05:28:24;;;;;;;66.40;36.97;;;;;;;17.98;75.21;100018.78;4876821;29;20077;-86
2021/08/27 05:30:51;;;;;;;62.92;36.05;;;;;;;18.06;74.06;100037.22;4887469;29;20092;-85
2021/08/27 05:33:16;;;;;;;70.33;38.30;;;;;;;17.98;74.67;100027.09;4884249;29;20040;-86
2021/08/27 05:35:44;;;;;;;66.30;38.95;;;;;;;17.99;74.18;100033.41;4886772;29;20064;-85
2021/08/27 05:38:10;;;;;;;62.50;37.13;;;;;;;17.93;74.60;100009.91;4876394;29;20088;-86
2021/08/27 05:40:37;;;;;;;69.18;39.08;;;;;;;17.67;74.74;99991.63;4868371;29;20048;-85
2021/08/27 05:43:04;;;;;;;66.20;37.42;;;;;;;18.06;74.90;100034.44;4870997;29;20120;-85
2021/08/27 05:45:31;;;;;;;73.63;39.80;;;;;;;17.93;74.29;100018.19;4855508;29;20052;-84
2021/08/27 05:47:57;;;;;;;74.47;39.05;;;;;;;18.05;73.81;100038.38;4874119;29;20511;-83
2021/08/27 05:50:24;;;;;;;85.75;41.33;;;;;;;18.07;74.08;100036.06;4872939;29;20037;-83
2021/08/27 05:52:50;;;;;;;68.10;38.80;;;;;;;18.13;73.83;100046.91;4873248;29;20258;-84
2021/08/27 05:55:17;;;;;;;;;;;;;;;18.23;74.12;100049.22;4872942;29;20496;-82
2021/08/27 05:57:42;;;;;;;72.30;41.00;;;;;;;18.25;73.88;100049.69;4876639;29;20010;-83
2021/08/27 06:00:11;;;;;;;75.30;42.05;;;;;;;18.26;73.57;100040.22;4885960;29;20045;-84
2021/08/27 06:02:37;;;;;;;76.00;42.40;;;;;;;18.21;73.97;100024.66;4885566;29;20043;-84
2021/08/27 06:05:04;;;;;;;73.73;42.13;;;;;;;18.31;73.07;100034.47;4871932;29;20036;-84
2021/08/27 06:07:30;;;;;;;87.90;40.72;;;;;;;18.49;73.37;100049.66;4872475;29;20044;-84
2021/08/27 06:09:58;;;;;;;79.32;42.50;;;;;;;18.38;72.83;100042.97;4872674;29;20515;-86
2021/08/27 06:12:24;;;;;;;79.83;42.63;;;;;;;18.49;72.89;100054.38;4883413;29;20082;-85
2021/08/27 06:14:51;;;;;;;72.97;40.63;;;;;;;18.40;72.83;100032.34;4884649;29;20036;-84
2021/08/27 06:17:17;;;;;;;75.90;41.63;;;;;;;18.59;72.67;100044.78;4880213;29;20103;-94
2021/08/27 06:19:44;;;;;;;74.57;41.70;;;;;;;18.46;71.72;100030.97;4884365;29;20040;-84
2021/08/27 06:22:10;;;;;;;;;;;;;;;18.54;72.06;100049.41;4884930;29;20131;-86
2021/08/27 06:24:41;;;;;;;80.93;42.50;;;;;;;18.51;71.52;100035.47;4854258;29;20366;-86
2021/08/27 06:27:07;;;;;;;100.05;43.70;;;;;;;18.65;71.62;100046.16;4869460;29;20045;-87
2021/08/27 06:29:34;;;;;;;81.07;42.10;;;;;;;18.55;71.65;100019.75;4853071;29;20046;-88
2021/08/27 06:32:00;;;;;;;88.23;42.17;;;;;;;18.64;71.14;100030.69;4873004;29;20045;-88
2021/08/27 06:34:26;;;;;;;94.80;44.30;;;;;;;18.85;71.18;100038.88;4870071;29;20033;-94
2021/08/27 06:36:52;;;;;;;85.07;41.90;;;;;;;18.92;71.18;100044.63;4887179;29;20191;-91
2021/08/27 06:39:18;;;;;;;79.72;41.83;;;;;;;18.73;70.26;100012.81;4880703;29;20059;-86
2021/08/27 06:41:44;;;;;;;70.30;40.00;;;;;;;18.81;69.81;100010.25;4887182;29;20040;-87
2021/08/27 06:44:10;;;;;;;75.07;40.22;;;;;;;18.99;69.54;100026.22;4870247;29;20124;-88
2021/08/27 06:46:36;;;;;;;74.67;40.90;;;;;;;19.16;70.02;100038.19;4852378;29;20221;-86
2021/08/27 06:49:02;;;;;;;72.47;41.40;;;;;;;19.12;69.41;100027.00;4882271;29;20196;-86
2021/08/27 06:51:28;;;;;;;79.47;39.63;;;;;;;19.11;68.25;100021.81;4886709;29;20459;-93
2021/08/27 06:53:54;;;;;;;74.20;41.20;;;;;;;19.34;68.30;100047.00;4883387;29;20037;-96
2021/08/27 06:56:23;;;;;;;83.97;43.20;;;;;;;19.38;68.40;100047.91;4856302;29;20057;-87
2021/08/27 06:58:49;;;;;;;76.20;41.17;;;;;;;19.39;67.96;100047.53;4884789;29;20407;-87
2021/08/27 07:01:18;;;;;;;72.38;42.05;;;;;;;19.33;66.62;100045.38;4879143;29;20040;-87
2021/08/27 07:03:44;;;;;;;88.75;44.15;;;;;;;19.38;67.72;100045.13;4870664;29;20044;-89
2021/08/27 07:06:12;;;;;;;152.33;49.30;;;;;;;19.22;68.33;100023.72;4880120;29;20052;-95
2021/08/27 07:08:39;;;;;;;82.00;45.05;;;;;;;19.49;68.12;100066.44;4867251;29;20196;-88
2021/08/27 07:11:05;;;;;;;80.93;46.05;;;;;;;19.56;67.41;100051.94;4867616;29;20510;-95
2021/08/27 07:13:32;;;;;;;110.78;50.88;;;;;;;19.60;67.16;100049.28;4875013;29;20045;-87
2021/08/27 07:15:58;;;;;;;89.10;47.70;;;;;;;19.64;66.20;100039.13;4882075;29;20104;-87
2021/08/27 07:18:26;;;;;;;82.00;44.80;;;;;;;19.58;66.71;100018.31;4876849;29;20120;-90
2021/08/27 07:20:53;;;;;;;88.25;47.13;;;;;;;19.83;67.52;100044.75;4869188;29;20612;-89
2021/08/27 07:23:23;;;;;;;104.43;46.72;;;;;;;19.99;65.38;100052.28;4877286;29;20052;-89
2021/08/27 07:25:52;;;;;;;96.30;46.33;;;;;;;20.10;65.30;100053.38;4881825;29;20423;-95
2021/08/27 07:28:18;;;;;;;110.97;48.93;;;;;;;20.14;64.65;100049.50;4870063;29;20040;-92
2021/08/27 07:30:44;;;;;;;101.93;47.60;;;;;;;20.14;65.35;100057.03;4871333;29;20051;-90
2021/08/27 07:33:10;;;;;;;106.47;46.57;;;;;;;20.18;65.49;100055.16;4869056;29;20049;-88
2021/08/27 07:35:38;;;;;;;99.05;48.70;;;;;;;20.21;65.36;100064.72;4873935;29;20048;-93
2021/08/27 07:38:04;;;;;;;94.57;46.80;;;;;;;20.14;64.47;100051.47;4877642;29;20414;-86
2021/08/27 07:40:30;;;;;;;93.47;46.43;;;;;;;20.32;65.25;100063.00;4877531;29;20095;-85
2021/08/27 07:42:56;;;;;;;81.37;44.53;;;;;;;20.39;64.16;100069.53;4890999;29;20510;-85
2021/08/27 07:45:24;;;;;;;86.10;46.72;;;;;;;20.28;64.66;100046.25;4877726;29;20037;-88
2021/08/27 07:47:50;;;;;;;86.25;47.35;;;;;;;20.38;64.72;100067.13;4883434;29;20037;-89
2021/08/27 07:50:16;;;;;;;99.65;47.13;;;;;;;20.39;63.81;100060.41;4875915;29;20779;-94
2021/08/27 07:52:42;;;;;;;83.03;46.92;;;;;;;20.35;64.00;100051.19;4867498;29;20056;-91
2021/08/27 07:55:09;;;;;;;89.78;46.03;;;;;;;20.41;63.67;100064.44;4872704;29;20049;-84
2021/08/27 07:57:43;;;;;;;107.65;47.35;;;;;;;20.56;64.14;100071.16;4865324;29;20052;-88
2021/08/27 08:00:12;;;;;;;101.65;49.05;;;;;;;20.63;63.62;100063.00;4877337;29;20184;-84
2021/08/27 08:02:39;;;;;;;91.55;45.38;;;;;;;20.83;63.73;100074.13;4879189;29;20129;-91
2021/08/27 08:05:06;;;;;;;;;;;;;;;20.81;62.14;100070.91;4867745;29;20049;-87
2021/08/27 08:07:32;;;;;;;86.57;44.83;;;;;;;20.85;62.87;100074.56;4880994;29;20007;-83
2021/08/27 08:09:58;;;;;;;;;;;;;;;20.76;62.81;100063.69;4880056;29;20068;-84
2021/08/27 08:12:25;;;;;;;87.90;45.45;;;;;;;20.55;63.59;100068.72;4871850;29;19928;-90
2021/08/27 08:14:53;;;;;;;72.68;42.28;;;;;;;20.48;64.30;100069.34;4869579;29;20513;-89
2021/08/27 08:17:19;;;;;;;87.80;42.60;;;;;;;20.52;65.04;100050.00;4863436;29;20041;-86
2021/08/27 08:19:45;;;;;;;83.00;43.63;;;;;;;20.57;64.44;100055.31;4860943;29;20060;-86
2021/08/27 08:22:11;;;;;;;73.63;42.43;;;;;;;20.62;63.23;100069.69;4868896;29;20088;-85
2021/08/27 08:24:38;;;;;;;82.68;41.70;;;;;;;20.64;62.53;100064.59;4865366;29;20048;-83
2021/08/27 08:27:04;;;;;;;110.47;52.97;;;;;;;20.67;63.28;100062.25;4859849;29;20084;-84
2021/08/27 08:29:31;;;;;;;96.25;43.67;;;;;;;20.82;63.28;100064.97;4860894;29;20097;-81
2021/08/27 08:31:57;;;;;;;81.17;39.13;;;;;;;20.94;61.52;100074.38;4862430;29;20047;-82
2021/08/27 08:34:24;;;;;;;;;;;;;;;21.04;63.16;100074.59;4868177;29;20048;-79
2021/08/27 08:36:51;;;;;;;102.07;43.83;;;;;;;21.15;62.76;100071.22;4863047;29;19923;-80
2021/08/27 08:39:17;;;;;;;74.70;41.47;;;;;;;21.23;63.65;100073.00;4861687;29;20045;-86
2021/08/27 08:41:47;;;;;;;79.90;42.13;;;;;;;21.21;63.13;100061.41;4870333;29;20700;-84
2021/08/27 08:44:14;;;;;;;73.30;42.40;;;;;;;21.32;62.48;100066.03;4865068;29;20040;-86
2021/08/27 08:46:43;;;;;;;80.05;41.92;;;;;;;21.29;63.75;100075.13;4863871;29;20627;-79
2021/08/27 08:49:11;;;;;;;83.82;39.75;;;;;;;21.37;63.03;100072.50;4858754;29;20041;-84
2021/08/27 08:51:39;;;;;;;70.63;40.22;;;;;;;21.47;62.42;100074.69;4857802;29;20122;-81
2021/08/27 08:54:07;;;;;;;61.90;39.58;;;;;;;21.35;62.26;100065.31;4859901;29;20443;-82
2021/08/27 08:56:33;;;;;;;83.63;39.55;;;;;;;21.41;62.66;100074.16;4858763;29;20057;-78
2021/08/27 08:59:01;;;;;;;76.68;37.92;;;;;;;21.60;61.37;100073.34;4857854;29;20132;-77
2021/08/27 09:01:29;;;;;;;;;;;;;;;21.70;60.62;100061.59;4858632;29;20080;-78
2021/08/27 09:03:55;;;;;;;76.95;36.80;;;;;;;21.68;59.08;100058.38;4857743;29;19930;-78
2021/08/27 09:06:21;;;;;;;72.10;37.17;;;;;;;21.71;57.74;100065.19;4857047;29;20403;-80
2021/08/27 09:08:48;;;;;;;80.95;36.97;;;;;;;21.77;59.17;100074.84;4847452;29;20045;-77
2021/08/27 09:11:24;;;;;;;68.17;36.80;;;;;;;21.85;60.44;100064.63;4857344;29;20068;-77
2021/08/27 09:13:53;;;;;;;63.72;35.28;;;;;;;21.78;58.75;100062.53;4857845;29;20132;-82
2021/08/27 09:16:25;;;;;;;85.32;37.38;;;;;;;21.77;60.95;100058.13;4856718;29;21022;-82
2021/08/27 09:18:52;;;;;;;82.07;36.38;;;;;;;21.77;59.81;100058.94;4856917;29;20041;-80
2021/08/27 09:21:38;;;;;;;82.90;35.45;;;;;;;21.75;60.42;100060.47;4858907;29;20049;-83
2021/08/27 09:24:09;;;;;;;98.05;36.00;;;;;;;21.69;59.23;100062.78;4859282;29;20791;-82
2021/08/27 09:26:38;;;;;;;68.10;34.22;;;;;;;21.65;58.82;100063.88;4859704;29;20052;-82
2021/08/27 09:29:05;;;;;;;66.60;32.50;;;;;;;21.62;58.85;100057.06;4859913;29;20040;-87
2021/08/27 09:31:39;;;;;;;61.63;33.17;;;;;;;21.62;58.98;100053.47;4859860;29;20638;-83
2021/08/27 09:34:06;;;;;;;86.20;32.50;;;;;;;21.68;59.31;100055.59;4870015;29;20036;-84
2021/08/27 09:36:35;;;;;;;;;;;;;;;21.80;59.80;100054.63;4878528;29;20064;-84
2021/08/27 09:39:10;;;;;;;75.43;31.20;;;;;;;21.75;58.80;100038.22;4858356;29;19928;-83
2021/08/27 09:41:37;;;;;;;55.20;29.67;;;;;;;21.83;58.98;100053.88;4874383;29;20048;-86
2021/08/27 09:44:05;;;;;;;60.92;29.98;;;;;;;21.94;58.98;100042.91;4880717;29;20526;-83
2021/08/27 09:46:41;;;;;;;68.80;29.08;;;;;;;21.98;58.69;100041.00;4883444;29;20511;-88
2021/08/27 09:49:31;;;;;;;95.32;32.33;;;;;;;22.00;58.18;100042.22;4881940;29;20056;-83
2021/08/27 09:51:59;;;;;;;79.50;29.45;;;;;;;22.03;59.92;100033.13;4879490;29;20040;-93
2021/08/27 09:54:31;;;;;;;77.70;27.88;;;;;;;22.04;58.05;100043.09;4878245;29;20439;-86
2021/08/27 09:56:59;;;;;;;68.15;27.65;;;;;;;21.95;57.57;100034.22;4878871;29;20060;-86
2021/08/27 09:59:43;;;;;;;92.53;28.48;;;;;;;22.03;58.41;100044.28;4879145;29;20168;-85
2021/08/27 10:02:14;;;;;;;67.00;26.55;;;;;;;22.13;58.64;100042.84;4880574;29;20052;-82
2021/08/27 10:04:57;;;;;;;55.20;26.88;;;;;;;22.26;58.77;100041.50;4880573;29;20076;-83
2021/08/27 10:07:33;;;;;;;58.08;25.58;;;;;;;22.42;59.09;100046.13;4880056;29;20049;-82
2021/08/27 10:10:02;;;;;;;74.95;26.08;;;;;;;22.50;58.67;100036.66;4879796;29;20557;-81
2021/08/27 10:12:31;;;;;;;54.58;24.00;;;;;;;22.54;57.33;100031.94;4862344;29;20041;-88
2021/08/27 10:14:59;;;;;;;50.85;24.92;;;;;;;22.58;57.73;100034.78;4854921;29;20041;-87
2021/08/27 10:17:26;;;;;;;52.72;24.02;;;;;;;22.68;57.42;100034.94;4875193;29;20091;-87
2021/08/27 10:19:53;;;;;;;53.85;24.55;;;;;;;22.67;56.57;100036.09;4879739;29;20123;-85
2021/08/27 10:22:18;;;;;;;48.58;21.83;;;;;;;22.75;56.23;100035.03;4878965;29;20068;-89
2021/08/27 10:24:46;;;;;;;;;;;;;;;22.88;54.68;100040.34;4880472;29;20463;-84
2021/08/27 10:27:16;;;;;;;56.75;21.75;;;;;;;22.98;55.56;100040.53;4879827;29;19927;-85
2021/08/27 10:29:55;;;;;;;184.55;27.63;;;;;;;22.97;54.68;100032.53;4880371;29;20398;-86
2021/08/27 10:32:39;;;;;;;80.00;22.65;;;;;;;23.02;55.34;100037.81;4880257;29;20499;-81
2021/08/27 10:35:10;;;;;;;43.58;20.23;;;;;;;23.01;54.10;100029.78;4876987;29;20596;-79
2021/08/27 10:37:54;;;;;;;61.90;22.05;;;;;;;23.03;53.53;100035.81;4879770;29;20105;-79
2021/08/27 10:40:23;;;;;;;43.03;20.50;;;;;;;23.11;52.79;100037.50;4879236;29;20045;-92
2021/08/27 10:43:03;;;;;;;63.30;21.48;;;;;;;23.15;52.83;100032.78;4882872;29;20185;-82
2021/08/27 10:45:32;;;;;;;43.92;19.25;;;;;;;23.17;52.07;100031.19;4883637;29;20044;-82
2021/08/27 10:48:24;;;;;;;49.22;19.48;;;;;;;23.23;53.83;100030.88;4880203;29;20555;-88
2021/08/27 10:50:53;;;;;;;33.17;18.58;;;;;;;23.31;51.31;100033.38;4888198;29;20091;-87
2021/08/27 10:53:30;;;;;;;79.28;21.08;;;;;;;23.46;51.94;100034.31;4892074;29;20531;-82
2021/08/27 10:55:59;;;;;;;36.60;18.55;;;;;;;23.55;52.09;100031.22;4888794;29;20076;-80
2021/08/27 10:58:49;;;;;;;46.80;18.70;;;;;;;23.65;49.26;100036.91;4891158;29;20065;-92
2021/08/27 11:01:37;;;;;;;51.72;17.95;;;;;;;23.66;49.11;100041.28;4891276;29;20049;-78
2021/08/27 11:04:10;;;;;;;36.28;18.27;;;;;;;23.62;47.96;100040.47;4895552;29;20040;-89
2021/08/27 11:06:44;;;;;;;47.50;19.35;;;;;;;23.61;48.68;100036.06;4882574;29;20041;-90
2021/08/27 11:09:23;;;;;;;51.20;18.17;;;;;;;23.56;49.37;100011.28;4882907;29;20096;-90
2021/08/27 11:12:09;;;;;;;52.75;20.63;;;;;;;23.72;50.38;100030.63;4876453;29;20525;-93
2021/08/27 11:14:37;;;;;;;47.90;20.38;;;;;;;23.72;49.79;100030.63;4894758;29;20056;-90
2021/08/27 11:17:06;;;;;;;35.83;17.92;;;;;;;23.63;49.70;100030.09;4896551;29;20055;-87
2021/08/27 11:19:43;;;;;;;45.13;17.73;;;;;;;23.83;49.73;100030.69;4887425;29;20072;-85
2021/08/27 11:22:09;;;;;;;39.65;17.77;;;;;;;23.89;49.81;100034.75;4875057;29;20124;-87
2021/08/27 11:24:36;;;;;;;62.73;20.83;;;;;;;23.77;49.66;100010.69;4887799;29;20131;-91
2021/08/27 11:27:05;;;;;;;82.18;20.23;;;;;;;23.97;48.99;100030.81;4842141;29;20419;-86